This is the latest recevied weather packets stored in our database for station/object EFOU. If no packets are shown the sender has not sent any weather packets the latest 10 day(s).
| Time | Temp. | Humidity | Pressure | Rain* | Wind** | Luminosity | Snow |
|---|---|---|---|---|---|---|---|
| 1777780023 | 5° C | 60% | 1004.5 hPa | - | - | - | - |
| 1777778823 | 4.44° C | 62% | 1004.2 hPa | - | - | - | - |
| 1777777623 | 3.33° C | 69% | 1004.2 hPa | - | - | - | - |
| 1777776423 | 3.33° C | 68% | 1004.2 hPa | - | - | - | - |
| 1777775223 | 3.33° C | 70% | 1004.2 hPa | - | - | - | - |
| 1777774022 | 4.44° C | 63% | 1004.1 hPa | - | - | - | - |
| 1777772823 | 3.89° C | 64% | 1004 hPa | - | - | - | - |
| 1777771622 | 5° C | 61% | 1003.9 hPa | - | - | - | - |
| 1777770422 | 5° C | 64% | 1003.8 hPa | - | - | - | - |
| 1777769222 | 5.56° C | 63% | 1003.7 hPa | - | - | - | - |
| 1777768022 | 5.56° C | 63% | 1003.7 hPa | - | - | - | - |
| 1777766822 | 5.56° C | 62% | 1003.7 hPa | - | - | - | - |
| 1777765622 | 6.11° C | 63% | 1003.7 hPa | - | - | - | - |
| 1777764422 | 6.11° C | 59% | 1003.6 hPa | - | - | - | - |
| 1777763222 | 6.11° C | 59% | 1003.6 hPa | - | - | - | - |
| 1777762022 | 6.11° C | 59% | 1003.5 hPa | - | - | - | - |
| 1777760822 | 6.11° C | 60% | 1003.5 hPa | - | - | - | - |
| 1777759622 | 6.11° C | 59% | 1003.6 hPa | - | - | - | - |
| 1777758422 | 5.56° C | 62% | 1003.4 hPa | - | - | - | - |
| 1777757222 | 6.11° C | 61% | 1003.5 hPa | - | - | - | - |
| 1777756021 | 6.11° C | 65% | 1003.4 hPa | - | - | - | - |
| 1777754821 | 5.56° C | 62% | 1003.3 hPa | - | - | - | - |
| 1777753621 | 6.11° C | 63% | 1003.3 hPa | - | - | - | - |
| 1777752421 | 6.11° C | 63% | 1003.3 hPa | - | - | - | - |
| 1777751221 | 6.67° C | 65% | 1003.2 hPa | - | - | - | - |
* Rain since midnight (hover to see other rain measurements)
** Current wind speed in m/s (hover to see current wind gust speed)